sensor_id;sensor_type;location;lat;lon;timestamp;pressure;altitude;pressure_sealevel;temperature;humidity
70229;BME280;57617;51.988;5.854;2023-05-21T00:02:01;101444.91;;;18.00;52.80
70229;BME280;57617;51.988;5.854;2023-05-21T00:04:28;101449.03;;;18.02;52.86
70229;BME280;57617;51.988;5.854;2023-05-21T00:06:56;101443.00;;;18.06;52.86
70229;BME280;57617;51.988;5.854;2023-05-21T00:09:21;101442.19;;;18.05;52.85
70229;BME280;57617;51.988;5.854;2023-05-21T00:11:46;101435.84;;;18.04;53.44
70229;BME280;57617;51.988;5.854;2023-05-21T00:14:11;101434.19;;;18.03;53.19
70229;BME280;57617;51.988;5.854;2023-05-21T00:16:37;101434.19;;;18.03;53.34
70229;BME280;57617;51.988;5.854;2023-05-21T00:19:02;101436.69;;;18.05;52.85
70229;BME280;57617;51.988;5.854;2023-05-21T00:21:27;101425.13;;;18.08;53.23
70229;BME280;57617;51.988;5.854;2023-05-21T00:23:53;101422.09;;;18.09;53.55
70229;BME280;57617;51.988;5.854;2023-05-21T00:26:20;101420.72;;;18.12;53.55
70229;BME280;57617;51.988;5.854;2023-05-21T00:28:46;101412.47;;;18.12;53.53
70229;BME280;57617;51.988;5.854;2023-05-21T00:31:11;101417.97;;;18.17;53.62
70229;BME280;57617;51.988;5.854;2023-05-21T00:33:36;101414.13;;;18.18;53.75
70229;BME280;57617;51.988;5.854;2023-05-21T00:36:02;101418.81;;;18.17;53.58
70229;BME280;57617;51.988;5.854;2023-05-21T00:38:27;101411.38;;;18.18;54.06
70229;BME280;57617;51.988;5.854;2023-05-21T00:40:53;101408.63;;;18.18;53.90
70229;BME280;57617;51.988;5.854;2023-05-21T00:43:18;101410.03;;;18.16;53.77
70229;BME280;57617;51.988;5.854;2023-05-21T00:45:43;101399.00;;;18.21;54.01
70229;BME280;57617;51.988;5.854;2023-05-21T00:48:11;101399.00;;;18.21;53.75
70229;BME280;57617;51.988;5.854;2023-05-21T00:50:36;101402.56;;;18.21;53.64
70229;BME280;57617;51.988;5.854;2023-05-21T00:53:04;101390.19;;;18.18;53.93
70229;BME280;57617;51.988;5.854;2023-05-21T00:55:34;101393.78;;;18.19;54.09
70229;BME280;57617;51.988;5.854;2023-05-21T00:57:59;101397.91;;;18.22;54.17
70229;BME280;57617;51.988;5.854;2023-05-21T01:00:25;101392.41;;;18.22;54.13
70229;BME280;57617;51.988;5.854;2023-05-21T01:02:51;101391.31;;;18.23;54.03
70229;BME280;57617;51.988;5.854;2023-05-21T01:05:16;101395.97;;;18.22;53.85
70229;BME280;57617;51.988;5.854;2023-05-21T01:07:42;101390.75;;;18.21;54.08
70229;BME280;57617;51.988;5.854;2023-05-21T01:10:08;101396.25;;;18.21;54.31
70229;BME280;57617;51.988;5.854;2023-05-21T01:12:36;101394.59;;;18.19;54.10
70229;BME280;57617;51.988;5.854;2023-05-21T01:15:02;101391.31;;;18.17;54.37
70229;BME280;57617;51.988;5.854;2023-05-21T01:17:28;101395.97;;;18.17;54.48
70229;BME280;57617;51.988;5.854;2023-05-21T01:19:58;101387.44;;;18.18;54.33
70229;BME280;57617;51.988;5.854;2023-05-21T01:22:24;101389.94;;;18.20;54.35
70229;BME280;57617;51.988;5.854;2023-05-21T01:24:53;101381.69;;;18.15;54.36
70229;BME280;57617;51.988;5.854;2023-05-21T01:27:19;101378.94;;;18.20;54.44
70229;BME280;57617;51.988;5.854;2023-05-21T01:29:45;101374.53;;;18.19;54.66
70229;BME280;57617;51.988;5.854;2023-05-21T01:32:22;101372.06;;;18.17;54.74
70229;BME280;57617;51.988;5.854;2023-05-21T01:34:58;101375.06;;;18.16;54.88
70229;BME280;57617;51.988;5.854;2023-05-21T01:37:44;101373.69;;;18.18;55.18
70229;BME280;57617;51.988;5.854;2023-05-21T01:40:17;101367.09;;;18.19;54.97
70229;BME280;57617;51.988;5.854;2023-05-21T01:42:44;101367.09;;;18.19;54.48
70229;BME280;57617;51.988;5.854;2023-05-21T01:45:13;101368.75;;;18.21;54.64
70229;BME280;57617;51.988;5.854;2023-05-21T01:47:40;101371.50;;;18.21;54.97
70229;BME280;57617;51.988;5.854;2023-05-21T01:50:09;101354.44;;;18.18;54.74
70229;BME280;57617;51.988;5.854;2023-05-21T01:52:35;101364.06;;;18.16;54.70
70229;BME280;57617;51.988;5.854;2023-05-21T01:55:00;101370.16;;;18.18;54.81
70229;BME280;57617;51.988;5.854;2023-05-21T01:57:25;101373.69;;;18.18;54.63
70229;BME280;57617;51.988;5.854;2023-05-21T01:59:52;101362.69;;;18.18;54.91
70229;BME280;57617;51.988;5.854;2023-05-21T02:02:17;101351.97;;;18.17;55.22
70229;BME280;57617;51.988;5.854;2023-05-21T02:04:43;101364.06;;;18.16;55.16
70229;BME280;57617;51.988;5.854;2023-05-21T02:07:10;101369.84;;;18.19;54.92
70229;BME280;57617;51.988;5.854;2023-05-21T02:09:38;101360.78;;;18.19;54.96
70229;BME280;57617;51.988;5.854;2023-05-21T02:12:04;101352.53;;;18.14;55.30
70229;BME280;57617;51.988;5.854;2023-05-21T02:14:29;101352.28;;;18.11;55.16
70229;BME280;57617;51.988;5.854;2023-05-21T02:16:57;101357.78;;;18.11;55.31
70229;BME280;57617;51.988;5.854;2023-05-21T02:19:23;101358.84;;;18.09;55.43
70229;BME280;57617;51.988;5.854;2023-05-21T02:21:48;101361.59;;;18.09;55.30
70229;BME280;57617;51.988;5.854;2023-05-21T02:24:13;101347.84;;;18.09;55.46
70229;BME280;57617;51.988;5.854;2023-05-21T02:26:38;101354.47;;;18.08;55.50
70229;BME280;57617;51.988;5.854;2023-05-21T02:29:04;101345.09;;;18.09;55.29
70229;BME280;57617;51.988;5.854;2023-05-21T02:31:29;101355.28;;;18.09;55.31
70229;BME280;57617;51.988;5.854;2023-05-21T02:33:54;101355.56;;;18.08;55.40
70229;BME280;57617;51.988;5.854;2023-05-21T02:36:20;101362.97;;;18.07;55.51
70229;BME280;57617;51.988;5.854;2023-05-21T02:38:45;101361.06;;;18.08;55.88
70229;BME280;57617;51.988;5.854;2023-05-21T02:41:11;101353.09;;;18.06;55.46
70229;BME280;57617;51.988;5.854;2023-05-21T02:43:37;101358.59;;;18.06;55.66
70229;BME280;57617;51.988;5.854;2023-05-21T02:46:04;101344.31;;;17.99;56.10
70229;BME280;57617;51.988;5.854;2023-05-21T02:48:30;101347.31;;;18.02;56.00
70229;BME280;57617;51.988;5.854;2023-05-21T02:50:55;101350.91;;;18.03;56.22
70229;BME280;57617;51.988;5.854;2023-05-21T02:53:20;101345.94;;;18.00;55.99
70229;BME280;57617;51.988;5.854;2023-05-21T02:55:45;101345.69;;;18.02;56.09
70229;BME280;57617;51.988;5.854;2023-05-21T02:58:12;101348.69;;;18.00;56.08
70229;BME280;57617;51.988;5.854;2023-05-21T03:00:39;101341.00;;;17.97;56.01
70229;BME280;57617;51.988;5.854;2023-05-21T03:03:04;101333.84;;;17.96;55.89
70229;BME280;57617;51.988;5.854;2023-05-21T03:05:29;101340.72;;;17.93;56.44
70229;BME280;57617;51.988;5.854;2023-05-21T03:07:55;101338.28;;;17.92;56.13
70229;BME280;57617;51.988;5.854;2023-05-21T03:10:20;101343.47;;;17.88;56.38
70229;BME280;57617;51.988;5.854;2023-05-21T03:12:46;101344.59;;;17.88;56.32
70229;BME280;57617;51.988;5.854;2023-05-21T03:15:11;101334.69;;;17.87;56.32
70229;BME280;57617;51.988;5.854;2023-05-21T03:17:39;101340.47;;;17.85;56.55
70229;BME280;57617;51.988;5.854;2023-05-21T03:20:09;101342.41;;;17.85;56.41
70229;BME280;57617;51.988;5.854;2023-05-21T03:22:42;101336.06;;;17.84;56.51
70229;BME280;57617;51.988;5.854;2023-05-21T03:25:07;101331.09;;;17.86;56.50
70229;BME280;57617;51.988;5.854;2023-05-21T03:27:33;101334.44;;;17.88;56.74
70229;BME280;57617;51.988;5.854;2023-05-21T03:29:58;101333.59;;;17.88;56.58
70229;BME280;57617;51.988;5.854;2023-05-21T03:32:23;101330.03;;;17.87;56.50
70229;BME280;57617;51.988;5.854;2023-05-21T03:34:49;101328.09;;;17.83;56.68
70229;BME280;57617;51.988;5.854;2023-05-21T03:37:14;101329.75;;;17.83;56.74
70229;BME280;57617;51.988;5.854;2023-05-21T03:39:40;101332.22;;;17.80;56.59
70229;BME280;57617;51.988;5.854;2023-05-21T03:42:05;101335.81;;;17.81;57.03
70229;BME280;57617;51.988;5.854;2023-05-21T03:44:30;101325.91;;;17.80;56.95
70229;BME280;57617;51.988;5.854;2023-05-21T03:46:57;101330.31;;;17.81;57.10
70229;BME280;57617;51.988;5.854;2023-05-21T03:49:22;101325.63;;;17.81;57.27
70229;BME280;57617;51.988;5.854;2023-05-21T03:51:47;101325.63;;;17.81;57.01
70229;BME280;57617;51.988;5.854;2023-05-21T03:54:12;101330.03;;;17.82;57.10
70229;BME280;57617;51.988;5.854;2023-05-21T03:56:38;101327.56;;;17.81;57.50
70229;BME280;57617;51.988;5.854;2023-05-21T03:59:03;101325.34;;;17.83;57.17
70229;BME280;57617;51.988;5.854;2023-05-21T04:01:28;101322.59;;;17.83;56.92
70229;BME280;57617;51.988;5.854;2023-05-21T04:03:54;101322.59;;;17.83;57.48
70229;BME280;57617;51.988;5.854;2023-05-21T04:06:20;101327.28;;;17.82;57.68
70229;BME280;57617;51.988;5.854;2023-05-21T04:08:45;101326.44;;;17.82;57.64
70229;BME280;57617;51.988;5.854;2023-05-21T04:11:11;101326.19;;;17.83;57.64
70229;BME280;57617;51.988;5.854;2023-05-21T04:13:37;101321.50;;;17.78;57.74
70229;BME280;57617;51.988;5.854;2023-05-21T04:16:02;101329.47;;;17.80;57.57
70229;BME280;57617;51.988;5.854;2023-05-21T04:18:28;101331.41;;;17.85;57.54
70229;BME280;57617;51.988;5.854;2023-05-21T04:20:53;101334.16;;;17.85;57.43
70229;BME280;57617;51.988;5.854;2023-05-21T04:23:18;101344.03;;;17.86;57.61
70229;BME280;57617;51.988;5.854;2023-05-21T04:25:43;101337.97;;;17.83;57.80
70229;BME280;57617;51.988;5.854;2023-05-21T04:28:09;101342.09;;;17.86;57.90
70229;BME280;57617;51.988;5.854;2023-05-21T04:30:35;101341.31;;;17.86;57.82
70229;BME280;57617;51.988;5.854;2023-05-21T04:33:01;101350.09;;;17.88;57.94
70229;BME280;57617;51.988;5.854;2023-05-21T04:35:27;101348.44;;;17.87;58.02
70229;BME280;57617;51.988;5.854;2023-05-21T04:37:52;101346.53;;;17.87;58.42
70229;BME280;57617;51.988;5.854;2023-05-21T04:40:19;101338.56;;;17.86;57.96
70229;BME280;57617;51.988;5.854;2023-05-21T04:42:49;101345.16;;;17.90;57.93
70229;BME280;57617;51.988;5.854;2023-05-21T04:45:15;101345.97;;;17.90;58.10
70229;BME280;57617;51.988;5.854;2023-05-21T04:47:41;101340.19;;;17.92;58.03
70229;BME280;57617;51.988;5.854;2023-05-21T04:50:07;101345.16;;;17.90;58.09
70229;BME280;57617;51.988;5.854;2023-05-21T04:52:32;101344.31;;;17.89;58.15
70229;BME280;57617;51.988;5.854;2023-05-21T04:54:59;101345.16;;;17.90;58.23
70229;BME280;57617;51.988;5.854;2023-05-21T04:57:24;101345.97;;;17.90;58.37
70229;BME280;57617;51.988;5.854;2023-05-21T04:59:49;101331.41;;;17.85;58.27
70229;BME280;57617;51.988;5.854;2023-05-21T05:02:15;101282.22;;;17.53;58.66
70229;BME280;57617;51.988;5.854;2023-05-21T05:04:40;101344.84;;;17.91;58.55
70229;BME280;57617;51.988;5.854;2023-05-21T05:07:08;101345.41;;;17.93;58.69
70229;BME280;57617;51.988;5.854;2023-05-21T05:09:33;101343.78;;;17.92;58.61
70229;BME280;57617;51.988;5.854;2023-05-21T05:11:58;101341.03;;;17.92;58.83
70229;BME280;57617;51.988;5.854;2023-05-21T05:14:23;101335.81;;;17.91;58.71
70229;BME280;57617;51.988;5.854;2023-05-21T05:16:49;101337.72;;;17.95;58.70
70229;BME280;57617;51.988;5.854;2023-05-21T05:19:14;101344.03;;;17.96;59.00
70229;BME280;57617;51.988;5.854;2023-05-21T05:21:39;101335.81;;;17.96;58.92
70229;BME280;57617;51.988;5.854;2023-05-21T05:24:05;101335.50;;;17.97;58.97
70229;BME280;57617;51.988;5.854;2023-05-21T05:26:30;101333.06;;;17.96;59.03
70229;BME280;57617;51.988;5.854;2023-05-21T05:28:57;101337.16;;;17.98;59.02
70229;BME280;57617;51.988;5.854;2023-05-21T05:31:22;101338.81;;;17.99;59.08
70229;BME280;57617;51.988;5.854;2023-05-21T05:33:47;101337.72;;;18.00;59.18
70229;BME280;57617;51.988;5.854;2023-05-21T05:36:12;101340.72;;;18.03;58.92
70229;BME280;57617;51.988;5.854;2023-05-21T05:38:38;101341.81;;;18.08;58.89
70229;BME280;57617;51.988;5.854;2023-05-21T05:41:04;101343.47;;;18.08;58.99
70229;BME280;57617;51.988;5.854;2023-05-21T05:43:29;101339.34;;;18.06;59.12
70229;BME280;57617;51.988;5.854;2023-05-21T05:45:54;101323.97;;;18.00;59.26
70229;BME280;57617;51.988;5.854;2023-05-21T05:48:20;101320.94;;;18.02;59.18
70229;BME280;57617;51.988;5.854;2023-05-21T05:50:46;101325.59;;;18.06;59.57
70229;BME280;57617;51.988;5.854;2023-05-21T05:53:11;101332.47;;;18.08;59.22
70229;BME280;57617;51.988;5.854;2023-05-21T05:55:40;101328.59;;;18.09;59.48
70229;BME280;57617;51.988;5.854;2023-05-21T05:58:05;101328.06;;;18.13;59.39
70229;BME280;57617;51.988;5.854;2023-05-21T06:00:31;101322.56;;;18.13;59.50
70229;BME280;57617;51.988;5.854;2023-05-21T06:02:56;101331.34;;;18.14;59.42
70229;BME280;57617;51.988;5.854;2023-05-21T06:05:21;101323.41;;;18.18;59.59
70229;BME280;57617;51.988;5.854;2023-05-21T06:07:46;101326.41;;;18.17;59.45
70229;BME280;57617;51.988;5.854;2023-05-21T06:10:12;101321.19;;;18.15;59.45
70229;BME280;57617;51.988;5.854;2023-05-21T06:12:37;101328.03;;;18.23;59.69
70229;BME280;57617;51.988;5.854;2023-05-21T06:15:03;101325.84;;;18.19;59.59
70229;BME280;57617;51.988;5.854;2023-05-21T06:17:29;101326.41;;;18.22;59.60
70229;BME280;57617;51.988;5.854;2023-05-21T06:19:55;101333.00;;;18.26;59.24
70229;BME280;57617;51.988;5.854;2023-05-21T06:22:21;101320.91;;;18.27;59.33
70229;BME280;57617;51.988;5.854;2023-05-21T06:24:46;101321.16;;;18.30;59.51
70229;BME280;57617;51.988;5.854;2023-05-21T06:27:11;101329.69;;;18.34;59.54
70229;BME280;57617;51.988;5.854;2023-05-21T06:29:37;101331.59;;;18.38;59.44
70229;BME280;57617;51.988;5.854;2023-05-21T06:32:02;101333.81;;;18.41;59.38
70229;BME280;57617;51.988;5.854;2023-05-21T06:34:27;101330.50;;;18.44;59.55
70229;BME280;57617;51.988;5.854;2023-05-21T06:36:53;101329.66;;;18.49;59.29
70229;BME280;57617;51.988;5.854;2023-05-21T06:39:18;101325.50;;;18.56;59.47
70229;BME280;57617;51.988;5.854;2023-05-21T06:41:43;101337.31;;;18.62;59.25
70229;BME280;57617;51.988;5.854;2023-05-21T06:44:09;101340.06;;;18.67;59.22
70229;BME280;57617;51.988;5.854;2023-05-21T06:46:35;101339.22;;;18.71;59.14
70229;BME280;57617;51.988;5.854;2023-05-21T06:49:00;101328.72;;;18.73;59.34
70229;BME280;57617;51.988;5.854;2023-05-21T06:51:25;101322.41;;;18.78;59.20
70229;BME280;57617;51.988;5.854;2023-05-21T06:53:51;101317.13;;;18.86;59.17
70229;BME280;57617;51.988;5.854;2023-05-21T06:56:17;101321.50;;;18.92;58.95
70229;BME280;57617;51.988;5.854;2023-05-21T06:58:42;101322.84;;;18.95;59.24
70229;BME280;57617;51.988;5.854;2023-05-21T07:01:07;101312.13;;;18.93;58.86
70229;BME280;57617;51.988;5.854;2023-05-21T07:03:33;101325.00;;;19.08;58.97
70229;BME280;57617;51.988;5.854;2023-05-21T07:05:59;101314.47;;;19.15;58.58
70229;BME280;57617;51.988;5.854;2023-05-21T07:08:25;101318.84;;;19.26;58.68
70229;BME280;57617;51.988;5.854;2023-05-21T07:10:50;101314.66;;;19.33;58.03
70229;BME280;57617;51.988;5.854;2023-05-21T07:13:15;101306.88;;;19.40;58.52
70229;BME280;57617;51.988;5.854;2023-05-21T07:15:41;101313.19;;;19.46;58.82
70229;BME280;57617;51.988;5.854;2023-05-21T07:18:06;101293.91;;;19.46;58.79
70229;BME280;57617;51.988;5.854;2023-05-21T07:20:31;101301.25;;;19.55;58.39
70229;BME280;57617;51.988;5.854;2023-05-21T07:22:57;101313.06;;;19.61;58.25
70229;BME280;57617;51.988;5.854;2023-05-21T07:25:22;101304.75;;;19.66;58.61
70229;BME280;57617;51.988;5.854;2023-05-21T07:27:48;101301.97;;;19.71;58.14
70229;BME280;57617;51.988;5.854;2023-05-21T07:30:13;101303.59;;;19.72;58.03
70229;BME280;57617;51.988;5.854;2023-05-21T07:32:38;101302.50;;;19.73;57.98
70229;BME280;57617;51.988;5.854;2023-05-21T07:35:04;101307.97;;;19.78;57.72
70229;BME280;57617;51.988;5.854;2023-05-21T07:37:30;101286.50;;;19.75;58.01
70229;BME280;57617;51.988;5.854;2023-05-21T07:39:56;101294.13;;;19.83;58.32
70229;BME280;57617;51.988;5.854;2023-05-21T07:42:22;101305.94;;;19.88;57.88
70229;BME280;57617;51.988;5.854;2023-05-21T07:44:48;101311.41;;;19.93;58.08
70229;BME280;57617;51.988;5.854;2023-05-21T07:47:13;101304.78;;;19.94;57.86
70229;BME280;57617;51.988;5.854;2023-05-21T07:49:38;101305.56;;;20.00;58.07
70229;BME280;57617;51.988;5.854;2023-05-21T07:52:04;101298.66;;;20.02;57.62
70229;BME280;57617;51.988;5.854;2023-05-21T07:54:29;101300.78;;;20.10;57.65
70229;BME280;57617;51.988;5.854;2023-05-21T07:56:54;101299.09;;;20.14;57.78
70229;BME280;57617;51.988;5.854;2023-05-21T07:59:20;101295.16;;;20.20;57.47
70229;BME280;57617;51.988;5.854;2023-05-21T08:01:45;101292.06;;;20.27;57.33
70229;BME280;57617;51.988;5.854;2023-05-21T08:04:11;101287.06;;;20.29;57.61
70229;BME280;57617;51.988;5.854;2023-05-21T08:06:36;101292.22;;;20.35;57.78
70229;BME280;57617;51.988;5.854;2023-05-21T08:09:02;101286.38;;;20.42;57.72
70229;BME280;57617;51.988;5.854;2023-05-21T08:11:28;101280.19;;;20.50;57.57
70229;BME280;57617;51.988;5.854;2023-05-21T08:13:53;101283.16;;;20.53;57.49
70229;BME280;57617;51.988;5.854;2023-05-21T08:16:19;101275.66;;;20.59;57.53
70229;BME280;57617;51.988;5.854;2023-05-21T08:18:45;101271.41;;;20.66;57.36
70229;BME280;57617;51.988;5.854;2023-05-21T08:21:10;101275.25;;;20.70;57.45
70229;BME280;57617;51.988;5.854;2023-05-21T08:23:36;101266.34;;;20.73;57.11
70229;BME280;57617;51.988;5.854;2023-05-21T08:26:01;101283.59;;;20.84;56.93
70229;BME280;57617;51.988;5.854;2023-05-21T08:28:26;101286.88;;;20.86;57.02
70229;BME280;57617;51.988;5.854;2023-05-21T08:30:53;101286.88;;;20.86;56.92
70229;BME280;57617;51.988;5.854;2023-05-21T08:33:18;101279.09;;;20.93;56.59
70229;BME280;57617;51.988;5.854;2023-05-21T08:35:44;101289.19;;;21.02;56.53
70229;BME280;57617;51.988;5.854;2023-05-21T08:38:09;101283.78;;;21.11;56.46
70229;BME280;57617;51.988;5.854;2023-05-21T08:40:34;101273.44;;;21.21;56.38
70229;BME280;57617;51.988;5.854;2023-05-21T08:43:00;101275.41;;;21.34;56.18
70229;BME280;57617;51.988;5.854;2023-05-21T08:45:26;101279.66;;;21.45;56.08
70229;BME280;57617;51.988;5.854;2023-05-21T08:47:56;101218.53;;;21.15;56.00
70229;BME280;57617;51.988;5.854;2023-05-21T08:50:23;101278.91;;;21.58;55.84
70229;BME280;57617;51.988;5.854;2023-05-21T08:52:50;101282.16;;;21.60;55.88
70229;BME280;57617;51.988;5.854;2023-05-21T08:55:15;101276.25;;;21.67;55.94
70229;BME280;57617;51.988;5.854;2023-05-21T08:57:42;101273.50;;;21.67;55.42
70229;BME280;57617;51.988;5.854;2023-05-21T09:00:08;101275.06;;;21.73;55.30
70229;BME280;57617;51.988;5.854;2023-05-21T09:02:34;101281.06;;;21.80;55.47
70229;BME280;57617;51.988;5.854;2023-05-21T09:05:02;101281.69;;;21.90;55.27
70229;BME280;57617;51.988;5.854;2023-05-21T09:07:29;101273.09;;;21.92;55.13
70229;BME280;57617;51.988;5.854;2023-05-21T09:09:56;101274.81;;;22.01;54.95
70229;BME280;57617;51.988;5.854;2023-05-21T09:12:23;101274.63;;;22.11;54.82
70229;BME280;57617;51.988;5.854;2023-05-21T09:14:49;101278.03;;;22.22;54.76
70229;BME280;57617;51.988;5.854;2023-05-21T09:17:15;101272.00;;;22.33;54.43
70229;BME280;57617;51.988;5.854;2023-05-21T09:20:09;101268.75;;;22.45;54.15
70229;BME280;57617;51.988;5.854;2023-05-21T09:22:48;101265.75;;;22.55;54.15
70229;BME280;57617;51.988;5.854;2023-05-21T09:25:24;101267.28;;;22.74;54.02
70229;BME280;57617;51.988;5.854;2023-05-21T09:27:57;101263.06;;;22.90;54.05
70229;BME280;57617;51.988;5.854;2023-05-21T09:30:22;101255.53;;;23.04;53.64
70229;BME280;57617;51.988;5.854;2023-05-21T09:32:58;101258.03;;;23.14;52.94
70229;BME280;57617;51.988;5.854;2023-05-21T09:35:24;101259.91;;;23.19;53.12
70229;BME280;57617;51.988;5.854;2023-05-21T09:37:51;101257.66;;;23.21;52.31
70229;BME280;57617;51.988;5.854;2023-05-21T09:40:18;101262.03;;;23.35;52.64
70229;BME280;57617;51.988;5.854;2023-05-21T09:42:52;101246.44;;;23.48;52.43
70229;BME280;57617;51.988;5.854;2023-05-21T09:45:24;101255.63;;;23.57;52.02
70229;BME280;57617;51.988;5.854;2023-05-21T09:47:52;101246.75;;;23.68;51.92
70229;BME280;57617;51.988;5.854;2023-05-21T09:50:24;101252.53;;;23.80;51.50
70229;BME280;57617;51.988;5.854;2023-05-21T09:52:52;101251.91;;;23.83;51.98
70229;BME280;57617;51.988;5.854;2023-05-21T09:55:21;101247.06;;;23.89;51.66
70229;BME280;57617;51.988;5.854;2023-05-21T09:57:48;101253.16;;;23.99;51.25
70229;BME280;57617;51.988;5.854;2023-05-21T10:00:29;101222.75;;;23.94;49.79
70229;BME280;57617;51.988;5.854;2023-05-21T10:02:59;101231.13;;;24.03;50.39
70229;BME280;57617;51.988;5.854;2023-05-21T10:05:29;101241.47;;;24.11;51.00
70229;BME280;57617;51.988;5.854;2023-05-21T10:08:02;101223.09;;;24.01;51.20
70229;BME280;57617;51.988;5.854;2023-05-21T10:10:30;101239.03;;;24.18;50.83
70229;BME280;57617;51.988;5.854;2023-05-21T10:13:05;101234.13;;;24.15;50.19
70229;BME280;57617;51.988;5.854;2023-05-21T10:15:56;101232.53;;;24.22;49.81
70229;BME280;57617;51.988;5.854;2023-05-21T10:18:23;101234.34;;;24.27;50.20
70229;BME280;57617;51.988;5.854;2023-05-21T10:20:49;101235.34;;;24.39;50.63
70229;BME280;57617;51.988;5.854;2023-05-21T10:23:16;101222.47;;;24.52;50.04
70229;BME280;57617;51.988;5.854;2023-05-21T10:25:43;101225.63;;;24.59;50.54
70229;BME280;57617;51.988;5.854;2023-05-21T10:28:09;101225.63;;;24.67;50.13
70229;BME280;57617;51.988;5.854;2023-05-21T10:30:35;101215.38;;;24.76;49.57
70229;BME280;57617;51.988;5.854;2023-05-21T10:33:03;101206.88;;;24.81;49.83
70229;BME280;57617;51.988;5.854;2023-05-21T10:35:28;101218.34;;;24.97;50.00
70229;BME280;57617;51.988;5.854;2023-05-21T10:37:56;101220.59;;;25.03;50.14
70229;BME280;57617;51.988;5.854;2023-05-21T10:40:21;101211.78;;;25.10;49.51
70229;BME280;57617;51.988;5.854;2023-05-21T10:43:01;101218.66;;;25.12;49.30
70229;BME280;57617;51.988;5.854;2023-05-21T10:45:46;101201.97;;;25.12;49.59
70229;BME280;57617;51.988;5.854;2023-05-21T10:51:23;101217.00;;;25.20;48.15
70229;BME280;57617;51.988;5.854;2023-05-21T10:57:06;101213.75;;;25.35;47.79
70229;BME280;57617;51.988;5.854;2023-05-21T10:59:39;101204.41;;;25.39;47.93
70229;BME280;57617;51.988;5.854;2023-05-21T11:02:08;101202.28;;;25.45;48.52
70229;BME280;57617;51.988;5.854;2023-05-21T11:04:35;101210.28;;;25.55;48.48
70229;BME280;57617;51.988;5.854;2023-05-21T11:07:04;101207.81;;;25.62;48.15
70229;BME280;57617;51.988;5.854;2023-05-21T11:09:29;101206.84;;;25.66;47.97
70229;BME280;57617;51.988;5.854;2023-05-21T11:11:58;101196.19;;;25.68;46.93
70229;BME280;57617;51.988;5.854;2023-05-21T11:14:32;101206.13;;;25.78;46.62
70229;BME280;57617;51.988;5.854;2023-05-21T11:17:11;101203.53;;;25.73;46.94
70229;BME280;57617;51.988;5.854;2023-05-21T11:19:42;101203.34;;;25.78;47.40
70229;BME280;57617;51.988;5.854;2023-05-21T11:24:45;101193.84;;;25.87;47.35
70229;BME280;57617;51.988;5.854;2023-05-21T11:27:10;101187.94;;;25.89;47.31
70229;BME280;57617;51.988;5.854;2023-05-21T11:29:43;101190.22;;;25.95;46.89
70229;BME280;57617;51.988;5.854;2023-05-21T11:32:10;101191.88;;;25.96;46.80
70229;BME280;57617;51.988;5.854;2023-05-21T11:34:41;101178.69;;;26.05;46.52
70229;BME280;57617;51.988;5.854;2023-05-21T11:39:48;101175.53;;;26.15;46.81
70229;BME280;57617;51.988;5.854;2023-05-21T11:42:27;101170.59;;;26.21;45.86
70229;BME280;57617;51.988;5.854;2023-05-21T11:44:55;101175.50;;;26.24;46.28
70229;BME280;57617;51.988;5.854;2023-05-21T11:47:24;101169.25;;;26.27;46.18
70229;BME280;57617;51.988;5.854;2023-05-21T11:49:53;101169.06;;;26.32;46.42
70229;BME280;57617;51.988;5.854;2023-05-21T11:52:18;101174.91;;;26.39;46.10
70229;BME280;57617;51.988;5.854;2023-05-21T11:54:49;101169.50;;;26.42;46.03
70229;BME280;57617;51.988;5.854;2023-05-21T11:57:17;101169.44;;;26.51;46.31
70229;BME280;57617;51.988;5.854;2023-05-21T11:59:44;101168.59;;;26.59;46.58
70229;BME280;57617;51.988;5.854;2023-05-21T12:02:14;101159.34;;;26.67;45.54
70229;BME280;57617;51.988;5.854;2023-05-21T12:04:40;101160.31;;;26.71;45.66
70229;BME280;57617;51.988;5.854;2023-05-21T12:07:07;101158.47;;;26.75;45.96
70229;BME280;57617;51.988;5.854;2023-05-21T12:09:49;101159.75;;;26.77;45.67
70229;BME280;57617;51.988;5.854;2023-05-21T12:12:23;101124.13;;;26.62;45.44
70229;BME280;57617;51.988;5.854;2023-05-21T12:14:49;101149.09;;;26.79;45.60
70229;BME280;57617;51.988;5.854;2023-05-21T12:17:16;101148.97;;;26.76;45.09
70229;BME280;57617;51.988;5.854;2023-05-21T12:19:43;101148.06;;;26.84;45.27
70229;BME280;57617;51.988;5.854;2023-05-21T12:22:09;101145.53;;;26.91;45.44
70229;BME280;57617;51.988;5.854;2023-05-21T12:24:36;101141.84;;;26.99;45.09
70229;BME280;57617;51.988;5.854;2023-05-21T12:27:03;101134.91;;;27.05;45.33
70229;BME280;57617;51.988;5.854;2023-05-21T12:29:37;101140.28;;;27.10;44.74
70229;BME280;57617;51.988;5.854;2023-05-21T12:32:04;101140.59;;;27.08;44.74
70229;BME280;57617;51.988;5.854;2023-05-21T12:37:07;101142.66;;;27.20;44.98
70229;BME280;57617;51.988;5.854;2023-05-21T12:39:40;101134.19;;;27.28;45.12
70229;BME280;57617;51.988;5.854;2023-05-21T12:42:06;101140.84;;;27.36;45.14
70229;BME280;57617;51.988;5.854;2023-05-21T12:44:31;101128.06;;;27.35;44.60
70229;BME280;57617;51.988;5.854;2023-05-21T12:46:57;101136.22;;;27.40;45.14
70229;BME280;57617;51.988;5.854;2023-05-21T12:49:49;101127.50;;;27.41;44.50
70229;BME280;57617;51.988;5.854;2023-05-21T12:52:18;101118.44;;;27.44;44.96
70229;BME280;57617;51.988;5.854;2023-05-21T12:54:51;101110.44;;;27.55;44.74
70229;BME280;57617;51.988;5.854;2023-05-21T12:57:21;101104.28;;;27.61;44.91
70229;BME280;57617;51.988;5.854;2023-05-21T13:02:33;101109.16;;;27.64;43.77
70229;BME280;57617;51.988;5.854;2023-05-21T13:05:03;101114.06;;;27.55;44.29
70229;BME280;57617;51.988;5.854;2023-05-21T13:07:30;101109.03;;;27.61;44.83